Port Hope, Minnesota
Current Conditions -  °F | °C
As of 3:33 AM on Monday 20 Oct 2014 (Local Time) from KBJI Reporting Station
Clear Clear  
Wind Chill: 35°   Ceiling: Unl
Heat Index: 39°   Visibility: 10mi
Dew Point: 37°   Wind: 5mph
Humidity: 91%   Direction: 300°WNW
Pressure: 29.93"   Gusts: NA
Location:  47.5271°N, 94.7611°W
Report Text: KBJI 200833Z AUTO 30004KT 10SM CLR 04/03 A2993 RMK AO2 T00380025
Loading
Personal Weather Stations






























Interactive Weather Map
Tropical Storm Tracking
New forecast layout! Learn more

10-Day Weather Forecast

Advertisements
Track Severe Weather on mobile